Terminal Aerodrome Forecast
Issued by NWS

Home | Current Version | Previous Version | Text Only | Print | Product List | Glossary On
Versions: 1 2 3 4 5 6 7 8 9 10 11 12 13 14 15 16 17 18
000
FTUS45 KVEF 310221 AAB
TAFDAG
TAF AMD
KDAG 310221Z 3102/3124 24011KT P6SM BKN140
     FM310300 08010G20KT P6SM VCSH SCT100 BKN150
      TEMPO 3103/3106 08025G35KT 6SM -TSRA FEW080CB SCT100 BKN140
     FM311600 31008KT P6SM SCT100 SCT150
     FM312200 04008KT P6SM VCTS SCT100CB BKN150=

USA.gov is the U.S. government's official web portal to all federal, state and local government web resources and services.